sensor_id;sensor_type;location;lat;lon;timestamp;pressure;altitude;pressure_sealevel;temperature;humidity
9523;BME280;63165;43.016;25.784;2023-04-23T00:02:21;100126.34;;;7.66;87.46
9523;BME280;63165;43.016;25.784;2023-04-23T00:05:21;100143.72;;;7.67;87.16
9523;BME280;63165;43.016;25.784;2023-04-23T00:08:05;100136.78;;;7.63;86.52
9523;BME280;63165;43.016;25.784;2023-04-23T00:11:02;100123.81;;;7.49;86.45
9523;BME280;63165;43.016;25.784;2023-04-23T00:13:56;100117.75;;;7.41;86.53
9523;BME280;63165;43.016;25.784;2023-04-23T00:16:39;100136.84;;;7.38;86.53
9523;BME280;63165;43.016;25.784;2023-04-23T00:19:30;100118.66;;;7.23;86.64
9523;BME280;63165;43.016;25.784;2023-04-23T00:22:13;100136.88;;;7.26;86.59
9523;BME280;63165;43.016;25.784;2023-04-23T00:25:06;100118.66;;;7.12;87.04
9523;BME280;63165;43.016;25.784;2023-04-23T00:28:01;100130.81;;;7.19;87.09
9523;BME280;63165;43.016;25.784;2023-04-23T00:30:44;100115.22;;;7.03;87.34
9523;BME280;63165;43.016;25.784;2023-04-23T00:33:22;100140.34;;;7.17;86.99
9523;BME280;63165;43.016;25.784;2023-04-23T00:35:53;100098.78;;;6.79;87.12
9523;BME280;63165;43.016;25.784;2023-04-23T00:38:30;100121.28;;;6.97;87.16
9523;BME280;63165;43.016;25.784;2023-04-23T00:40:59;100143.84;;;7.04;87.16
9523;BME280;63165;43.016;25.784;2023-04-23T00:43:35;100135.16;;;7.02;87.64
9523;BME280;63165;43.016;25.784;2023-04-23T00:46:08;100142.09;;;6.95;87.39
9523;BME280;63165;43.016;25.784;2023-04-23T00:48:39;100148.19;;;6.96;87.49
9523;BME280;63165;43.016;25.784;2023-04-23T00:51:14;100155.97;;;6.91;87.29
9523;BME280;63165;43.016;25.784;2023-04-23T00:53:47;100145.56;;;6.88;87.41
9523;BME280;63165;43.016;25.784;2023-04-23T00:56:18;100155.13;;;6.85;87.28
9523;BME280;63165;43.016;25.784;2023-04-23T00:58:50;100149.06;;;6.81;87.26
9523;BME280;63165;43.016;25.784;2023-04-23T01:01:21;100157.72;;;6.80;87.38
9523;BME280;63165;43.016;25.784;2023-04-23T01:03:53;100149.03;;;6.78;86.91
9523;BME280;63165;43.016;25.784;2023-04-23T01:06:21;100146.44;;;6.76;87.40
9523;BME280;63165;43.016;25.784;2023-04-23T01:08:52;100136.91;;;6.75;87.52
9523;BME280;63165;43.016;25.784;2023-04-23T01:11:25;100142.97;;;6.71;86.87
9523;BME280;63165;43.016;25.784;2023-04-23T01:13:57;100155.97;;;6.65;87.36
9523;BME280;63165;43.016;25.784;2023-04-23T01:16:31;100145.56;;;6.64;87.36
9523;BME280;63165;43.016;25.784;2023-04-23T01:19:15;100129.97;;;6.57;87.20
9523;BME280;63165;43.016;25.784;2023-04-23T01:21:55;100103.09;;;6.37;87.54
9523;BME280;63165;43.016;25.784;2023-04-23T01:24:59;100125.63;;;6.53;88.25
9523;BME280;63165;43.016;25.784;2023-04-23T01:27:42;100137.78;;;6.53;88.03
9523;BME280;63165;43.016;25.784;2023-04-23T01:30:34;100125.63;;;6.53;87.63
9523;BME280;63165;43.016;25.784;2023-04-23T01:33:20;100129.06;;;6.51;87.83
9523;BME280;63165;43.016;25.784;2023-04-23T01:36:01;100131.69;;;6.49;87.42
9523;BME280;63165;43.016;25.784;2023-04-23T01:38:45;100133.41;;;6.41;87.48
9523;BME280;63165;43.016;25.784;2023-04-23T01:41:38;100107.38;;;6.24;87.46
9523;BME280;63165;43.016;25.784;2023-04-23T01:44:20;100140.31;;;6.31;87.65
9523;BME280;63165;43.016;25.784;2023-04-23T01:47:02;100117.78;;;6.18;87.69
9523;BME280;63165;43.016;25.784;2023-04-23T01:49:42;100135.97;;;6.30;88.01
9523;BME280;63165;43.016;25.784;2023-04-23T01:52:33;100150.72;;;6.30;87.89
9523;BME280;63165;43.016;25.784;2023-04-23T01:55:13;100147.22;;;6.26;87.94
9523;BME280;63165;43.016;25.784;2023-04-23T01:58:02;100120.34;;;6.09;87.94
9523;BME280;63165;43.016;25.784;2023-04-23T02:00:43;100139.41;;;6.17;87.81
9523;BME280;63165;43.016;25.784;2023-04-23T02:03:20;100133.34;;;6.10;87.70
9523;BME280;63165;43.016;25.784;2023-04-23T02:06:14;100144.56;;;6.08;87.79
9523;BME280;63165;43.016;25.784;2023-04-23T02:08:54;100143.72;;;6.02;88.25
9523;BME280;63165;43.016;25.784;2023-04-23T02:11:42;100144.56;;;6.03;88.30
9523;BME280;63165;43.016;25.784;2023-04-23T02:14:22;100136.78;;;6.03;88.19
9523;BME280;63165;43.016;25.784;2023-04-23T02:17:01;100143.75;;;6.10;88.22
9523;BME280;63165;43.016;25.784;2023-04-23T02:19:48;100139.41;;;6.11;88.18
9523;BME280;63165;43.016;25.784;2023-04-23T02:22:31;100135.94;;;6.09;88.12
9523;BME280;63165;43.016;25.784;2023-04-23T02:25:15;100142.00;;;6.06;88.34
9523;BME280;63165;43.016;25.784;2023-04-23T02:27:57;100133.25;;;5.93;88.01
9523;BME280;63165;43.016;25.784;2023-04-23T02:30:52;100150.59;;;5.96;88.14
9523;BME280;63165;43.016;25.784;2023-04-23T02:33:37;100143.66;;;5.95;87.93
9523;BME280;63165;43.016;25.784;2023-04-23T02:36:22;100109.84;;;5.76;87.97
9523;BME280;63165;43.016;25.784;2023-04-23T02:39:06;100134.09;;;5.91;87.80
9523;BME280;63165;43.016;25.784;2023-04-23T02:41:47;100129.78;;;5.83;87.80
9523;BME280;63165;43.016;25.784;2023-04-23T02:44:30;100117.59;;;5.72;87.84
9523;BME280;63165;43.016;25.784;2023-04-23T02:47:14;100151.38;;;5.81;88.05
9523;BME280;63165;43.016;25.784;2023-04-23T02:49:52;100147.91;;;5.77;88.09
9523;BME280;63165;43.016;25.784;2023-04-23T02:52:30;100147.00;;;5.74;87.73
9523;BME280;63165;43.016;25.784;2023-04-23T02:55:13;100125.31;;;5.56;87.95
9523;BME280;63165;43.016;25.784;2023-04-23T02:57:58;100146.13;;;5.67;87.89
9523;BME280;63165;43.016;25.784;2023-04-23T03:00:41;100142.66;;;5.63;87.61
9523;BME280;63165;43.016;25.784;2023-04-23T03:03:21;100150.41;;;5.59;88.33
9523;BME280;63165;43.016;25.784;2023-04-23T03:06:01;100146.09;;;5.59;88.23
9523;BME280;63165;43.016;25.784;2023-04-23T03:08:42;100160.78;;;5.59;88.44
9523;BME280;63165;43.016;25.784;2023-04-23T03:11:24;100161.66;;;5.56;88.16
9523;BME280;63165;43.016;25.784;2023-04-23T03:14:03;100112.94;;;5.12;88.14
9523;BME280;63165;43.016;25.784;2023-04-23T03:16:43;100156.44;;;5.50;87.96
9523;BME280;63165;43.016;25.784;2023-04-23T03:19:24;100159.00;;;5.47;88.13
9523;BME280;63165;43.016;25.784;2023-04-23T03:22:14;100187.50;;;5.44;88.59
9523;BME280;63165;43.016;25.784;2023-04-23T03:24:57;100160.69;;;5.43;88.51
9523;BME280;63165;43.016;25.784;2023-04-23T03:27:32;100158.09;;;5.43;88.46
9523;BME280;63165;43.016;25.784;2023-04-23T03:30:21;100163.25;;;5.37;88.45
9523;BME280;63165;43.016;25.784;2023-04-23T03:33:01;100179.72;;;5.41;88.51
9523;BME280;63165;43.016;25.784;2023-04-23T03:35:40;100171.91;;;5.38;88.50
9523;BME280;63165;43.016;25.784;2023-04-23T03:38:13;100169.34;;;5.39;89.10
9523;BME280;63165;43.016;25.784;2023-04-23T03:40:54;100164.09;;;5.32;88.71
9523;BME280;63165;43.016;25.784;2023-04-23T03:43:33;100158.00;;;5.27;89.14
9523;BME280;63165;43.016;25.784;2023-04-23T03:46:20;100028.72;;;4.52;89.18
9523;BME280;63165;43.016;25.784;2023-04-23T03:49:08;100187.47;;;5.38;89.16
9523;BME280;63165;43.016;25.784;2023-04-23T03:51:46;100186.63;;;5.39;89.34
9523;BME280;63165;43.016;25.784;2023-04-23T03:54:24;100184.03;;;5.39;89.28
9523;BME280;63165;43.016;25.784;2023-04-23T03:57:03;100181.44;;;5.39;89.21
9523;BME280;63165;43.016;25.784;2023-04-23T03:59:38;100177.13;;;5.39;89.32
9523;BME280;63165;43.016;25.784;2023-04-23T04:02:11;100190.94;;;5.40;89.43
9523;BME280;63165;43.016;25.784;2023-04-23T04:04:49;100181.47;;;5.43;89.56
9523;BME280;63165;43.016;25.784;2023-04-23T04:07:26;100168.41;;;5.30;89.40
9523;BME280;63165;43.016;25.784;2023-04-23T04:09:55;100191.81;;;5.39;89.73
9523;BME280;63165;43.016;25.784;2023-04-23T04:12:26;100177.91;;;5.28;89.79
9523;BME280;63165;43.016;25.784;2023-04-23T04:14:56;100195.28;;;5.41;89.95
9523;BME280;63165;43.016;25.784;2023-04-23T04:17:29;100232.47;;;5.41;90.91
9523;BME280;63165;43.016;25.784;2023-04-23T04:20:06;100192.69;;;5.44;91.12
9523;BME280;63165;43.016;25.784;2023-04-23T04:22:47;100179.69;;;5.33;91.05
9523;BME280;63165;43.016;25.784;2023-04-23T04:25:27;100199.66;;;5.48;91.34
9523;BME280;63165;43.016;25.784;2023-04-23T04:28:25;100204.00;;;5.55;91.94
9523;BME280;63165;43.016;25.784;2023-04-23T04:31:06;100203.19;;;5.62;92.07
9523;BME280;63165;43.016;25.784;2023-04-23T04:33:51;100208.44;;;5.69;92.30
9523;BME280;63165;43.016;25.784;2023-04-23T04:36:26;100202.41;;;5.77;92.72
9523;BME280;63165;43.016;25.784;2023-04-23T04:39:11;100209.38;;;5.84;92.95
9523;BME280;63165;43.016;25.784;2023-04-23T04:41:48;100196.38;;;5.81;93.24
9523;BME280;63165;43.016;25.784;2023-04-23T04:44:19;100208.56;;;5.92;93.24
9523;BME280;63165;43.016;25.784;2023-04-23T04:46:58;100193.78;;;5.83;93.64
9523;BME280;63165;43.016;25.784;2023-04-23T04:49:35;100215.59;;;6.07;93.41
9523;BME280;63165;43.016;25.784;2023-04-23T04:52:03;100174.78;;;5.89;93.54
9523;BME280;63165;43.016;25.784;2023-04-23T04:54:36;100229.50;;;6.18;94.26
9523;BME280;63165;43.016;25.784;2023-04-23T04:57:06;100229.53;;;6.27;94.78
9523;BME280;63165;43.016;25.784;2023-04-23T04:59:38;100221.78;;;6.38;95.04
9523;BME280;63165;43.016;25.784;2023-04-23T05:02:12;100220.94;;;6.50;95.29
9523;BME280;63165;43.016;25.784;2023-04-23T05:05:05;100213.16;;;6.65;96.30
9523;BME280;63165;43.016;25.784;2023-04-23T05:07:48;100216.66;;;6.81;97.12
9523;BME280;63165;43.016;25.784;2023-04-23T05:10:32;100213.19;;;6.97;98.19
9523;BME280;63165;43.016;25.784;2023-04-23T05:13:12;100223.59;;;7.16;99.00
9523;BME280;63165;43.016;25.784;2023-04-23T05:15:50;100224.47;;;7.36;99.77
9523;BME280;63165;43.016;25.784;2023-04-23T05:18:31;100194.09;;;7.48;100.00
9523;BME280;63165;43.016;25.784;2023-04-23T05:21:06;100212.25;;;7.80;100.00
9523;BME280;63165;43.016;25.784;2023-04-23T05:23:36;100229.56;;;8.03;100.00
9523;BME280;63165;43.016;25.784;2023-04-23T05:26:09;100222.53;;;8.20;100.00
9523;BME280;63165;43.016;25.784;2023-04-23T05:28:39;100197.38;;;8.16;100.00
9523;BME280;63165;43.016;25.784;2023-04-23T05:31:15;100196.31;;;8.57;100.00
9523;BME280;63165;43.016;25.784;2023-04-23T05:33:43;100178.84;;;8.68;99.37
9523;BME280;63165;43.016;25.784;2023-04-23T05:36:21;100214.22;;;9.06;99.03
9523;BME280;63165;43.016;25.784;2023-04-23T05:38:49;100218.38;;;9.29;98.97
9523;BME280;63165;43.016;25.784;2023-04-23T05:41:17;100167.25;;;9.03;98.60
9523;BME280;63165;43.016;25.784;2023-04-23T05:43:45;100217.13;;;9.68;98.08
9523;BME280;63165;43.016;25.784;2023-04-23T05:46:12;100190.16;;;9.68;98.10
9523;BME280;63165;43.016;25.784;2023-04-23T05:48:40;100205.53;;;9.97;97.09
9523;BME280;63165;43.016;25.784;2023-04-23T05:51:07;100207.97;;;10.08;96.50
9523;BME280;63165;43.016;25.784;2023-04-23T05:53:34;100208.72;;;10.19;95.85
9523;BME280;63165;43.016;25.784;2023-04-23T05:56:02;100209.44;;;10.35;96.10
9523;BME280;63165;43.016;25.784;2023-04-23T05:58:31;100218.72;;;10.58;95.15
9523;BME280;63165;43.016;25.784;2023-04-23T06:00:58;100213.28;;;10.72;94.48
9523;BME280;63165;43.016;25.784;2023-04-23T06:03:26;100214.03;;;10.81;93.82
9523;BME280;63165;43.016;25.784;2023-04-23T06:05:53;100211.16;;;10.98;93.51
9523;BME280;63165;43.016;25.784;2023-04-23T06:08:20;100197.97;;;11.01;92.62
9523;BME280;63165;43.016;25.784;2023-04-23T06:10:48;100192.59;;;11.11;92.64
9523;BME280;63165;43.016;25.784;2023-04-23T06:13:15;100193.22;;;11.26;92.27
9523;BME280;63165;43.016;25.784;2023-04-23T06:15:44;100201.72;;;11.41;91.12
9523;BME280;63165;43.016;25.784;2023-04-23T06:18:12;100203.91;;;11.64;90.44
9523;BME280;63165;43.016;25.784;2023-04-23T06:20:39;100214.91;;;11.83;89.76
9523;BME280;63165;43.016;25.784;2023-04-23T06:23:06;100178.09;;;11.88;89.13
9523;BME280;63165;43.016;25.784;2023-04-23T06:25:33;100183.00;;;12.06;88.68
9523;BME280;63165;43.016;25.784;2023-04-23T06:28:01;100204.22;;;12.37;87.76
9523;BME280;63165;43.016;25.784;2023-04-23T06:30:28;100202.03;;;12.56;86.95
9523;BME280;63165;43.016;25.784;2023-04-23T06:32:57;100203.63;;;12.63;85.01
9523;BME280;63165;43.016;25.784;2023-04-23T06:35:24;100186.09;;;12.66;83.51
9523;BME280;63165;43.016;25.784;2023-04-23T06:37:51;100203.03;;;12.90;82.45
9523;BME280;63165;43.016;25.784;2023-04-23T06:40:18;100204.47;;;13.03;81.70
9523;BME280;63165;43.016;25.784;2023-04-23T06:42:46;100188.56;;;13.09;80.77
9523;BME280;63165;43.016;25.784;2023-04-23T06:45:13;100197.28;;;13.11;80.14
9523;BME280;63165;43.016;25.784;2023-04-23T06:47:41;100146.84;;;13.31;79.89
9523;BME280;63165;43.016;25.784;2023-04-23T06:50:09;100195.72;;;13.73;78.69
9523;BME280;63165;43.016;25.784;2023-04-23T06:52:37;100188.81;;;14.00;77.26
9523;BME280;63165;43.016;25.784;2023-04-23T06:55:05;100185.47;;;14.25;76.02
9523;BME280;63165;43.016;25.784;2023-04-23T06:57:32;100171.22;;;14.32;74.16
9523;BME280;63165;43.016;25.784;2023-04-23T07:00:00;100170.66;;;14.50;72.43
9523;BME280;63165;43.016;25.784;2023-04-23T07:02:27;100172.78;;;14.67;71.84
9523;BME280;63165;43.016;25.784;2023-04-23T07:04:55;100181.59;;;14.94;71.47
9523;BME280;63165;43.016;25.784;2023-04-23T07:07:24;100163.06;;;14.96;70.88
9523;BME280;63165;43.016;25.784;2023-04-23T07:09:51;100182.28;;;15.26;69.96
9523;BME280;63165;43.016;25.784;2023-04-23T07:12:18;100161.09;;;15.29;69.48
9523;BME280;63165;43.016;25.784;2023-04-23T07:14:45;100184.66;;;15.59;68.98
9523;BME280;63165;43.016;25.784;2023-04-23T07:17:13;100186.13;;;15.68;68.81
9523;BME280;63165;43.016;25.784;2023-04-23T07:19:40;100170.47;;;15.88;69.08
9523;BME280;63165;43.016;25.784;2023-04-23T07:22:08;100174.31;;;16.03;68.76
9523;BME280;63165;43.016;25.784;2023-04-23T07:24:37;100166.91;;;16.13;68.00
9523;BME280;63165;43.016;25.784;2023-04-23T07:27:05;100180.16;;;16.35;66.43
9523;BME280;63165;43.016;25.784;2023-04-23T07:29:33;100168.38;;;16.44;66.98
9523;BME280;63165;43.016;25.784;2023-04-23T07:32:00;100189.34;;;16.71;66.79
9523;BME280;63165;43.016;25.784;2023-04-23T07:34:28;100175.59;;;16.84;66.24
9523;BME280;63165;43.016;25.784;2023-04-23T07:36:55;100179.81;;;17.11;66.18
9523;BME280;63165;43.016;25.784;2023-04-23T07:39:22;100176.41;;;17.29;64.79
9523;BME280;63165;43.016;25.784;2023-04-23T07:41:51;100155.84;;;17.36;63.60
9523;BME280;63165;43.016;25.784;2023-04-23T07:44:18;100178.72;;;17.57;62.77
9523;BME280;63165;43.016;25.784;2023-04-23T07:46:46;100137.59;;;17.50;62.48
9523;BME280;63165;43.016;25.784;2023-04-23T07:49:13;100164.81;;;17.73;62.03
9523;BME280;63165;43.016;25.784;2023-04-23T07:51:41;100157.03;;;17.90;61.64
9523;BME280;63165;43.016;25.784;2023-04-23T07:54:08;100162.63;;;18.03;61.51
9523;BME280;63165;43.016;25.784;2023-04-23T07:56:36;100146.28;;;18.12;59.28
9523;BME280;63165;43.016;25.784;2023-04-23T07:59:05;100151.25;;;18.20;59.18
9523;BME280;63165;43.016;25.784;2023-04-23T08:01:32;100118.81;;;18.15;58.17
9523;BME280;63165;43.016;25.784;2023-04-23T08:04:00;100148.34;;;18.43;58.32
9523;BME280;63165;43.016;25.784;2023-04-23T08:06:27;100145.97;;;18.56;57.16
9523;BME280;63165;43.016;25.784;2023-04-23T08:08:56;100128.84;;;18.63;56.24
9523;BME280;63165;43.016;25.784;2023-04-23T08:11:23;100138.69;;;18.79;55.71
9523;BME280;63165;43.016;25.784;2023-04-23T08:13:50;100134.38;;;18.95;55.27
9523;BME280;63165;43.016;25.784;2023-04-23T08:16:19;100139.69;;;19.13;54.81
9523;BME280;63165;43.016;25.784;2023-04-23T08:18:46;100123.63;;;19.16;54.89
9523;BME280;63165;43.016;25.784;2023-04-23T08:21:13;100126.19;;;19.35;54.44
9523;BME280;63165;43.016;25.784;2023-04-23T08:23:41;100120.56;;;19.41;54.37
9523;BME280;63165;43.016;25.784;2023-04-23T08:26:08;100119.19;;;19.67;53.86
9523;BME280;63165;43.016;25.784;2023-04-23T08:28:35;100118.66;;;19.78;52.67
9523;BME280;63165;43.016;25.784;2023-04-23T08:31:03;100106.69;;;19.87;52.41
9523;BME280;63165;43.016;25.784;2023-04-23T08:33:31;100121.78;;;20.02;50.86
9523;BME280;63165;43.016;25.784;2023-04-23T08:35:59;100114.56;;;20.04;50.37
9523;BME280;63165;43.016;25.784;2023-04-23T08:38:26;100121.09;;;20.30;50.76
9523;BME280;63165;43.016;25.784;2023-04-23T08:40:56;100117.75;;;20.43;49.55
9523;BME280;63165;43.016;25.784;2023-04-23T08:43:29;100118.44;;;20.62;48.51
9523;BME280;63165;43.016;25.784;2023-04-23T08:46:01;100111.31;;;20.79;48.44
9523;BME280;63165;43.016;25.784;2023-04-23T08:48:33;100092.81;;;20.91;47.62
9523;BME280;63165;43.016;25.784;2023-04-23T08:51:01;100103.69;;;21.17;46.40
9523;BME280;63165;43.016;25.784;2023-04-23T08:53:30;100096.81;;;21.29;45.12
9523;BME280;63165;43.016;25.784;2023-04-23T08:55:58;100099.41;;;21.45;43.38
9523;BME280;63165;43.016;25.784;2023-04-23T08:58:26;100098.28;;;21.63;44.26
9523;BME280;63165;43.016;25.784;2023-04-23T09:00:54;100094.56;;;21.80;44.08
9523;BME280;63165;43.016;25.784;2023-04-23T09:03:22;100081.31;;;21.93;43.71
9523;BME280;63165;43.016;25.784;2023-04-23T09:05:52;100078.56;;;22.09;44.36
9523;BME280;63165;43.016;25.784;2023-04-23T09:08:20;100079.28;;;22.25;44.25
9523;BME280;63165;43.016;25.784;2023-04-23T09:10:47;100076.53;;;22.27;42.69
9523;BME280;63165;43.016;25.784;2023-04-23T09:13:15;100083.13;;;22.48;42.45
9523;BME280;63165;43.016;25.784;2023-04-23T09:15:42;100068.38;;;22.43;40.28
9523;BME280;63165;43.016;25.784;2023-04-23T09:18:09;100074.91;;;22.52;40.67
9523;BME280;63165;43.016;25.784;2023-04-23T09:20:36;100065.34;;;22.62;40.01
9523;BME280;63165;43.016;25.784;2023-04-23T09:23:07;100070.13;;;22.57;38.93
9523;BME280;63165;43.016;25.784;2023-04-23T09:25:34;100072.09;;;22.67;38.66
9523;BME280;63165;43.016;25.784;2023-04-23T09:28:06;100049.25;;;22.63;38.30
9523;BME280;63165;43.016;25.784;2023-04-23T09:30:38;100083.00;;;22.77;37.66
9523;BME280;63165;43.016;25.784;2023-04-23T09:33:05;100068.34;;;22.70;36.91
9523;BME280;63165;43.016;25.784;2023-04-23T09:35:33;100062.38;;;22.66;36.65
9523;BME280;63165;43.016;25.784;2023-04-23T09:38:01;100050.41;;;22.59;35.68
9523;BME280;63165;43.016;25.784;2023-04-23T09:40:34;100067.19;;;22.74;35.06
9523;BME280;63165;43.016;25.784;2023-04-23T09:43:03;100061.78;;;22.88;35.46
9523;BME280;63165;43.016;25.784;2023-04-23T09:45:32;100041.41;;;22.87;35.21
9523;BME280;63165;43.016;25.784;2023-04-23T09:48:00;100034.16;;;22.90;35.05
9523;BME280;63165;43.016;25.784;2023-04-23T09:50:34;100041.88;;;23.20;34.89
9523;BME280;63165;43.016;25.784;2023-04-23T09:53:03;100037.59;;;23.30;34.62
9523;BME280;63165;43.016;25.784;2023-04-23T09:55:33;100039.13;;;23.34;34.54
9523;BME280;63165;43.016;25.784;2023-04-23T09:58:03;100030.03;;;23.37;34.90
9523;BME280;63165;43.016;25.784;2023-04-23T10:00:35;100031.72;;;23.38;34.84
9523;BME280;63165;43.016;25.784;2023-04-23T10:03:03;100031.50;;;23.41;34.57
9523;BME280;63165;43.016;25.784;2023-04-23T10:05:37;100028.31;;;23.36;32.90
9523;BME280;63165;43.016;25.784;2023-04-23T10:08:05;100030.78;;;23.39;32.77
9523;BME280;63165;43.016;25.784;2023-04-23T10:10:34;100009.41;;;23.26;32.22
9523;BME280;63165;43.016;25.784;2023-04-23T10:13:02;100021.69;;;23.41;31.74
9523;BME280;63165;43.016;25.784;2023-04-23T10:15:29;100019.78;;;23.31;30.84
9523;BME280;63165;43.016;25.784;2023-04-23T10:17:56;100034.53;;;23.23;30.47
9523;BME280;63165;43.016;25.784;2023-04-23T10:20:25;100038.38;;;23.19;31.18
9523;BME280;63165;43.016;25.784;2023-04-23T10:22:54;100029.50;;;23.32;30.67
9523;BME280;63165;43.016;25.784;2023-04-23T10:25:23;100022.03;;;23.24;30.11
9523;BME280;63165;43.016;25.784;2023-04-23T10:27:54;100006.84;;;23.12;30.94
9523;BME280;63165;43.016;25.784;2023-04-23T10:30:22;100019.56;;;23.21;31.04
9523;BME280;63165;43.016;25.784;2023-04-23T10:32:49;100021.38;;;23.33;31.04
9523;BME280;63165;43.016;25.784;2023-04-23T10:35:17;100007.94;;;23.35;31.29
9523;BME280;63165;43.016;25.784;2023-04-23T10:37:45;99996.19;;;23.24;30.67
9523;BME280;63165;43.016;25.784;2023-04-23T10:40:18;99986.78;;;23.19;30.76
9523;BME280;63165;43.016;25.784;2023-04-23T10:42:46;100001.09;;;23.18;30.65
9523;BME280;63165;43.016;25.784;2023-04-23T10:45:16;100000.75;;;23.35;30.55
9523;BME280;63165;43.016;25.784;2023-04-23T10:47:44;99989.63;;;23.41;30.53
9523;BME280;63165;43.016;25.784;2023-04-23T10:50:23;100008.28;;;23.67;31.29
9523;BME280;63165;43.016;25.784;2023-04-23T10:52:51;99998.97;;;23.73;30.98
9523;BME280;63165;43.016;25.784;2023-04-23T10:55:20;99986.72;;;23.83;30.46
9523;BME280;63165;43.016;25.784;2023-04-23T10:57:55;99980.34;;;23.97;29.79
9523;BME280;63165;43.016;25.784;2023-04-23T11:00:25;99992.06;;;24.07;29.51
9523;BME280;63165;43.016;25.784;2023-04-23T11:02:53;99995.63;;;24.19;29.77
9523;BME280;63165;43.016;25.784;2023-04-23T11:05:21;99984.94;;;24.19;29.33
9523;BME280;63165;43.016;25.784;2023-04-23T11:08:06;99988.13;;;24.24;28.42
9523;BME280;63165;43.016;25.784;2023-04-23T11:10:44;99977.97;;;24.40;28.42
9523;BME280;63165;43.016;25.784;2023-04-23T11:13:21;99965.00;;;24.47;29.15
9523;BME280;63165;43.016;25.784;2023-04-23T11:16:16;99967.13;;;24.55;28.86
9523;BME280;63165;43.016;25.784;2023-04-23T11:19:03;99938.91;;;24.27;28.14
9523;BME280;63165;43.016;25.784;2023-04-23T11:21:54;99968.88;;;24.43;28.61
9523;BME280;63165;43.016;25.784;2023-04-23T11:24:22;99948.03;;;24.24;28.66
9523;BME280;63165;43.016;25.784;2023-04-23T11:26:51;99978.56;;;24.33;28.68
9523;BME280;63165;43.016;25.784;2023-04-23T11:29:20;99967.69;;;24.23;28.34
9523;BME280;63165;43.016;25.784;2023-04-23T11:31:50;99961.41;;;24.24;28.44
9523;BME280;63165;43.016;25.784;2023-04-23T11:34:17;99950.34;;;24.29;28.42
9523;BME280;63165;43.016;25.784;2023-04-23T11:36:46;99940.59;;;24.28;28.65
9523;BME280;63165;43.016;25.784;2023-04-23T11:39:14;99967.41;;;24.39;28.79
9523;BME280;63165;43.016;25.784;2023-04-23T11:41:43;99951.59;;;24.36;28.05
9523;BME280;63165;43.016;25.784;2023-04-23T11:44:11;99966.34;;;24.17;27.95
9523;BME280;63165;43.016;25.784;2023-04-23T11:46:38;99963.72;;;24.05;27.73
9523;BME280;63165;43.016;25.784;2023-04-23T11:49:07;99955.38;;;24.09;28.02
9523;BME280;63165;43.016;25.784;2023-04-23T11:51:40;99945.19;;;24.14;28.27
9523;BME280;63165;43.016;25.784;2023-04-23T11:54:09;99940.84;;;24.25;28.13
9523;BME280;63165;43.016;25.784;2023-04-23T11:56:38;99954.69;;;24.54;27.72
9523;BME280;63165;43.016;25.784;2023-04-23T11:59:06;99937.31;;;24.59;27.45
9523;BME280;63165;43.016;25.784;2023-04-23T12:01:43;99936.72;;;24.56;27.90
9523;BME280;63165;43.016;25.784;2023-04-23T12:04:14;99943.38;;;24.50;27.66
9523;BME280;63165;43.016;25.784;2023-04-23T12:06:43;99933.38;;;24.41;27.76
9523;BME280;63165;43.016;25.784;2023-04-23T12:09:11;99932.09;;;24.22;27.51
9523;BME280;63165;43.016;25.784;2023-04-23T12:11:39;99926.78;;;23.98;27.92
9523;BME280;63165;43.016;25.784;2023-04-23T12:14:07;99923.81;;;23.90;27.86
9523;BME280;63165;43.016;25.784;2023-04-23T12:16:37;99936.69;;;23.85;27.22
9523;BME280;63165;43.016;25.784;2023-04-23T12:19:08;99917.50;;;23.54;26.90
9523;BME280;63165;43.016;25.784;2023-04-23T12:21:52;99928.44;;;23.51;27.28
9523;BME280;63165;43.016;25.784;2023-04-23T12:24:21;99907.25;;;23.24;27.63
9523;BME280;63165;43.016;25.784;2023-04-23T12:26:50;99910.56;;;23.15;27.82
9523;BME280;63165;43.016;25.784;2023-04-23T12:29:19;99898.59;;;22.95;27.87
9523;BME280;63165;43.016;25.784;2023-04-23T12:31:48;99912.94;;;23.06;28.25
9523;BME280;63165;43.016;25.784;2023-04-23T12:34:17;99903.31;;;22.91;28.29
9523;BME280;63165;43.016;25.784;2023-04-23T12:36:46;99907.03;;;22.88;28.63
9523;BME280;63165;43.016;25.784;2023-04-23T12:39:30;99896.63;;;22.73;28.52
9523;BME280;63165;43.016;25.784;2023-04-23T12:42:02;99902.25;;;22.81;28.61
9523;BME280;63165;43.016;25.784;2023-04-23T12:44:30;99906.09;;;22.77;28.78
9523;BME280;63165;43.016;25.784;2023-04-23T12:47:01;99899.28;;;22.73;28.66
9523;BME280;63165;43.016;25.784;2023-04-23T12:49:30;99905.47;;;22.73;29.11
9523;BME280;63165;43.016;25.784;2023-04-23T12:51:57;99910.91;;;22.72;28.93
9523;BME280;63165;43.016;25.784;2023-04-23T12:54:29;99903.00;;;22.83;29.46
9523;BME280;63165;43.016;25.784;2023-04-23T12:56:57;99897.34;;;22.87;29.85
9523;BME280;63165;43.016;25.784;2023-04-23T12:59:25;99885.50;;;22.92;29.75
9523;BME280;63165;43.016;25.784;2023-04-23T13:01:52;99871.63;;;22.86;30.00
9523;BME280;63165;43.016;25.784;2023-04-23T13:04:19;99893.25;;;22.95;29.88
9523;BME280;63165;43.016;25.784;2023-04-23T13:06:47;99889.13;;;22.91;30.38
9523;BME280;63165;43.016;25.784;2023-04-23T13:09:14;99892.97;;;22.86;31.00
9523;BME280;63165;43.016;25.784;2023-04-23T13:11:43;99901.06;;;22.85;30.75
9523;BME280;63165;43.016;25.784;2023-04-23T13:14:13;99898.19;;;22.75;30.33
9523;BME280;63165;43.016;25.784;2023-04-23T13:16:40;99896.81;;;22.70;30.52
9523;BME280;63165;43.016;25.784;2023-04-23T13:19:07;99865.56;;;22.59;30.64
9523;BME280;63165;43.016;25.784;2023-04-23T13:21:35;99891.91;;;22.63;30.71
9523;BME280;63165;43.016;25.784;2023-04-23T13:24:02;99899.28;;;22.73;31.00
9523;BME280;63165;43.016;25.784;2023-04-23T13:26:30;99825.06;;;22.41;31.39
9523;BME280;63165;43.016;25.784;2023-04-23T13:29:02;99896.38;;;23.01;31.42